createdAt,value
2023-01-02T00:02:02.268Z,99943.44
2023-01-02T00:04:30.080Z,99943.41
2023-01-02T00:06:57.877Z,99937.94
2023-01-02T00:09:26.925Z,99934.00
2023-01-02T00:11:54.618Z,99928.56
2023-01-02T00:14:22.360Z,99922.22
2023-01-02T00:16:50.154Z,99925.06
2023-01-02T00:19:17.862Z,99917.25
2023-01-02T00:21:45.553Z,99917.16
2023-01-02T00:24:13.555Z,99917.34
2023-01-02T00:26:42.666Z,99904.88
2023-01-02T00:29:10.507Z,99920.63
2023-01-02T00:31:38.224Z,99906.75
2023-01-02T00:34:06.242Z,99900.81
2023-01-02T00:36:33.883Z,99898.88
2023-01-02T00:39:01.664Z,99895.34
2023-01-02T00:41:29.374Z,99884.19
2023-01-02T00:43:58.401Z,99892.50
2023-01-02T00:46:26.246Z,99882.06
2023-01-02T00:48:53.954Z,99890.13
2023-01-02T00:51:21.588Z,99891.94
2023-01-02T00:53:49.337Z,99894.72
2023-01-02T00:56:17.001Z,99895.06
2023-01-02T00:58:44.857Z,99896.19
2023-01-02T01:01:14.116Z,99903.59
2023-01-02T01:03:43.823Z,99895.03
2023-01-02T01:06:12.270Z,99896.13
2023-01-02T01:08:40.101Z,99886.28
2023-01-02T01:11:08.306Z,99872.50
2023-01-02T01:13:36.406Z,99895.63
2023-01-02T01:16:05.647Z,99888.81
2023-01-02T01:18:35.499Z,99887.47
2023-01-02T01:21:07.239Z,99881.81
2023-01-02T01:23:34.944Z,99890.81
2023-01-02T01:26:05.167Z,99891.63
2023-01-02T01:28:32.938Z,99876.38
2023-01-02T01:31:04.492Z,99884.38
2023-01-02T01:33:32.569Z,99883.25
2023-01-02T01:36:06.576Z,99879.72
2023-01-02T01:38:34.637Z,99874.53
2023-01-02T01:41:03.084Z,99877.84
2023-01-02T01:43:38.864Z,99880.13
2023-01-02T01:46:10.480Z,99880.16
2023-01-02T01:48:38.637Z,99873.75
2023-01-02T01:51:07.963Z,99876.34
2023-01-02T01:53:36.124Z,99878.44
2023-01-02T01:56:07.913Z,99885.47
2023-01-02T01:58:39.291Z,99865.63
2023-01-02T02:01:07.235Z,99871.09
2023-01-02T02:03:37.121Z,99880.28
2023-01-02T02:06:07.075Z,99870.53
2023-01-02T02:08:38.834Z,99868.53
2023-01-02T02:11:06.941Z,99870.53
2023-01-02T02:13:35.410Z,99860.00
2023-01-02T02:16:13.966Z,99858.63
2023-01-02T02:18:58.761Z,99861.09
2023-01-02T02:21:51.603Z,99860.16
2023-01-02T02:24:46.331Z,99856.81
2023-01-02T02:27:40.013Z,99858.63
2023-01-02T02:30:15.823Z,99857.97
2023-01-02T02:33:02.711Z,99850.31
2023-01-02T02:35:43.876Z,99827.56
2023-01-02T02:38:20.464Z,99832.97
2023-01-02T02:40:56.810Z,99829.44
2023-01-02T02:43:36.242Z,99830.13
2023-01-02T02:46:11.500Z,99831.31
2023-01-02T02:48:48.243Z,99838.88
2023-01-02T02:51:21.795Z,99827.34
2023-01-02T02:53:55.839Z,99829.75
2023-01-02T02:56:25.965Z,99843.06
2023-01-02T02:58:54.180Z,99838.28
2023-01-02T03:01:30.989Z,99828.00
2023-01-02T03:03:59.132Z,99824.88
2023-01-02T03:06:45.089Z,99824.47
2023-01-02T03:09:21.325Z,99832.47
2023-01-02T03:11:56.158Z,99831.03
2023-01-02T03:14:34.196Z,99823.94
2023-01-02T03:17:06.928Z,99823.63
2023-01-02T03:19:40.871Z,99819.22
2023-01-02T03:22:13.539Z,99812.78
2023-01-02T03:24:44.114Z,99808.38
2023-01-02T03:27:16.129Z,99803.19
2023-01-02T03:29:48.451Z,99807.28
2023-01-02T03:32:24.432Z,99799.31
2023-01-02T03:34:53.975Z,99811.63
2023-01-02T03:37:26.540Z,99827.81
2023-01-02T03:39:58.691Z,99835.75
2023-01-02T03:42:29.347Z,99828.44
2023-01-02T03:45:03.792Z,99829.09
2023-01-02T03:47:39.840Z,99824.28
2023-01-02T03:50:13.132Z,99826.28
2023-01-02T03:52:41.189Z,99820.69
2023-01-02T03:55:10.381Z,99834.16
2023-01-02T03:57:57.001Z,99838.75
2023-01-02T04:00:36.068Z,99837.91
2023-01-02T04:03:10.967Z,99838.75
2023-01-02T04:05:44.599Z,99832.38
2023-01-02T04:08:17.661Z,99837.75
2023-01-02T04:10:50.760Z,99831.50
2023-01-02T04:13:27.543Z,99834.63
2023-01-02T04:15:56.671Z,99834.56
2023-01-02T04:18:30.454Z,99844.75
2023-01-02T04:21:02.001Z,99850.53
2023-01-02T04:23:36.849Z,99849.16
2023-01-02T04:26:09.651Z,99846.94
2023-01-02T04:28:37.710Z,99849.72
2023-01-02T04:31:10.665Z,99849.72
2023-01-02T04:33:45.817Z,99849.41
2023-01-02T04:36:15.823Z,99854.34
2023-01-02T04:38:44.836Z,99848.09
2023-01-02T04:41:16.178Z,99853.84
2023-01-02T04:43:43.969Z,99847.19
2023-01-02T04:46:11.967Z,99841.00
2023-01-02T04:48:41.011Z,99841.75
2023-01-02T04:51:08.681Z,99845.97
2023-01-02T04:53:36.331Z,99854.50
2023-01-02T04:56:04.174Z,99841.88
2023-01-02T04:58:31.862Z,99844.47
2023-01-02T05:00:59.977Z,99841.22
2023-01-02T05:03:27.704Z,99847.19
2023-01-02T05:06:01.980Z,99845.78
2023-01-02T05:08:30.385Z,99845.31
2023-01-02T05:10:58.717Z,99842.63
2023-01-02T05:13:26.382Z,99843.94
2023-01-02T05:15:55.894Z,99845.31
2023-01-02T05:18:23.572Z,99852.38
2023-01-02T05:20:51.242Z,99846.53
2023-01-02T05:23:37.638Z,99847.41
2023-01-02T05:26:11.356Z,99857.00
2023-01-02T05:28:39.027Z,99859.41
2023-01-02T05:31:06.812Z,99857.69
2023-01-02T05:33:36.022Z,99865.94
2023-01-02T05:36:05.780Z,99869.91
2023-01-02T05:38:35.307Z,99877.72
2023-01-02T05:41:04.614Z,99878.44
2023-01-02T05:43:33.150Z,99865.81
2023-01-02T05:46:07.907Z,99871.47
2023-01-02T05:48:35.914Z,99872.53
2023-01-02T05:51:03.910Z,99889.53
2023-01-02T05:53:31.793Z,99891.28
2023-01-02T05:56:06.580Z,99895.44
2023-01-02T05:58:35.228Z,99885.41
2023-01-02T06:01:07.327Z,99871.63
2023-01-02T06:03:35.574Z,99890.56
2023-01-02T06:06:04.646Z,99893.03
2023-01-02T06:08:32.350Z,99893.69
2023-01-02T06:11:00.045Z,99905.88
2023-01-02T06:13:30.980Z,99903.50
2023-01-02T06:16:00.031Z,99906.41
2023-01-02T06:18:27.811Z,99906.75
2023-01-02T06:20:59.952Z,99915.06
2023-01-02T06:23:27.776Z,99918.94
2023-01-02T06:25:55.929Z,99917.19
2023-01-02T06:28:23.695Z,99916.38
2023-01-02T06:30:52.706Z,99900.19
2023-01-02T06:33:20.741Z,99906.88
2023-01-02T06:35:48.368Z,99904.47
2023-01-02T06:38:15.986Z,99919.63
2023-01-02T06:40:53.289Z,99922.00
2023-01-02T06:43:20.988Z,99925.00
2023-01-02T06:45:48.792Z,99891.97
2023-01-02T06:48:18.411Z,99926.91
2023-01-02T06:50:47.183Z,99925.53
2023-01-02T06:53:14.839Z,99939.41
2023-01-02T06:55:51.965Z,99942.44
2023-01-02T06:58:19.808Z,99937.66
2023-01-02T07:00:47.543Z,99944.72
2023-01-02T07:03:15.644Z,99938.53
2023-01-02T07:05:45.102Z,99936.47
2023-01-02T07:08:13.608Z,99933.66
2023-01-02T07:10:41.267Z,99932.00
2023-01-02T07:13:08.954Z,99938.81
2023-01-02T07:15:36.648Z,99945.13
2023-01-02T07:18:04.518Z,99935.25
2023-01-02T07:20:32.231Z,99940.00
2023-01-02T07:23:01.398Z,99945.13
2023-01-02T07:25:29.254Z,99947.75
2023-01-02T07:27:57.215Z,99957.47
2023-01-02T07:30:24.861Z,99958.66
2023-01-02T07:32:54.122Z,99960.59
2023-01-02T07:35:22.039Z,99970.50
2023-01-02T07:37:49.870Z,99956.63
2023-01-02T07:40:18.972Z,99964.59
2023-01-02T07:42:46.606Z,99969.00
2023-01-02T07:45:14.347Z,99967.50
2023-01-02T07:47:42.018Z,99978.06
2023-01-02T07:50:09.979Z,99969.31
2023-01-02T07:52:38.076Z,99977.19
2023-01-02T07:55:06.665Z,99977.09
2023-01-02T07:57:35.774Z,99983.16
2023-01-02T08:00:04.182Z,99981.00
2023-01-02T08:02:39.823Z,99985.94
2023-01-02T08:05:08.157Z,99989.34
2023-01-02T08:07:40.904Z,99987.31
2023-01-02T08:10:12.603Z,100003.50
2023-01-02T08:12:41.663Z,99987.16
2023-01-02T08:15:09.872Z,99982.75
2023-01-02T08:17:37.587Z,99986.81
2023-01-02T08:20:08.223Z,99984.44
2023-01-02T08:22:36.230Z,99985.94
2023-01-02T08:25:04.104Z,99995.13
2023-01-02T08:27:31.901Z,99988.88
2023-01-02T08:30:01.027Z,99988.88
2023-01-02T08:32:28.731Z,100003.50
2023-01-02T08:34:56.418Z,100007.91
2023-01-02T08:37:25.181Z,100027.03
2023-01-02T08:39:52.842Z,100032.22
2023-01-02T08:42:20.556Z,100038.06
2023-01-02T08:44:48.237Z,100045.31
2023-01-02T08:47:17.402Z,100035.41
2023-01-02T08:49:45.152Z,100032.59
2023-01-02T08:52:12.881Z,100043.16
2023-01-02T08:54:40.576Z,100032.25
2023-01-02T08:57:08.193Z,100041.31
2023-01-02T08:59:35.861Z,100036.97
2023-01-02T09:02:04.039Z,100037.00
2023-01-02T09:04:33.210Z,100043.75
2023-01-02T09:07:00.872Z,100040.19
2023-01-02T09:09:28.653Z,100055.66
2023-01-02T09:11:57.062Z,100067.53
2023-01-02T09:14:24.906Z,100064.00
2023-01-02T09:16:53.205Z,100071.59
2023-01-02T09:19:20.880Z,100071.94
2023-01-02T09:21:50.392Z,100075.50
2023-01-02T09:24:18.015Z,100083.56
2023-01-02T09:26:46.097Z,100093.44
2023-01-02T09:29:15.310Z,100086.75
2023-01-02T09:31:43.734Z,100088.75
2023-01-02T09:34:11.747Z,100079.19
2023-01-02T09:36:39.698Z,100085.09
2023-01-02T09:39:10.628Z,100094.25
2023-01-02T09:41:40.410Z,100091.03
2023-01-02T09:44:14.511Z,100089.03
2023-01-02T09:46:48.983Z,100088.34
2023-01-02T09:49:19.600Z,100043.03
2023-01-02T09:51:48.090Z,100052.19
2023-01-02T09:54:22.840Z,100102.25
2023-01-02T09:56:58.224Z,100101.69
2023-01-02T09:59:32.995Z,100099.41
2023-01-02T10:02:10.307Z,100082.84
2023-01-02T10:04:56.728Z,100110.38
2023-01-02T10:07:29.836Z,100085.59
2023-01-02T10:10:03.769Z,100101.63
2023-01-02T10:12:38.782Z,100098.69
2023-01-02T10:15:13.455Z,100099.72
2023-01-02T10:17:47.132Z,100066.19
2023-01-02T10:20:25.856Z,100108.13
2023-01-02T10:22:58.129Z,100077.16
2023-01-02T10:25:32.093Z,100119.97
2023-01-02T10:28:03.528Z,100113.09
2023-01-02T10:30:37.555Z,100106.28
2023-01-02T10:33:13.371Z,100123.19
2023-01-02T10:35:44.198Z,100118.75
2023-01-02T10:38:13.150Z,100120.38
2023-01-02T10:40:44.594Z,100132.25
2023-01-02T10:43:12.914Z,100119.78
2023-01-02T10:45:40.705Z,100111.81
2023-01-02T10:48:10.774Z,100106.94
2023-01-02T10:50:42.459Z,100105.72
2023-01-02T10:53:20.777Z,100089.97
2023-01-02T10:55:50.208Z,100097.16
2023-01-02T10:58:22.744Z,100117.56
2023-01-02T11:00:51.609Z,100104.00
2023-01-02T11:03:23.319Z,100105.16
2023-01-02T11:05:53.709Z,100112.06
2023-01-02T11:08:24.364Z,100106.94
2023-01-02T11:10:53.347Z,100087.75
2023-01-02T11:13:22.829Z,100113.84
2023-01-02T11:15:57.073Z,100117.84
2023-01-02T11:18:28.156Z,100116.97
2023-01-02T11:21:03.890Z,100105.44
2023-01-02T11:23:35.723Z,100109.69
2023-01-02T11:26:06.154Z,100121.78
2023-01-02T11:28:36.226Z,100119.22
2023-01-02T11:31:07.277Z,100110.88
2023-01-02T11:33:35.975Z,100115.69
2023-01-02T11:36:16.710Z,100122.34
2023-01-02T11:38:46.299Z,100131.47
2023-01-02T11:41:48.229Z,100124.69
2023-01-02T11:44:20.962Z,100125.88
2023-01-02T11:46:49.530Z,100125.03
2023-01-02T11:49:20.921Z,100134.19
2023-01-02T11:51:54.807Z,100138.16
2023-01-02T11:54:26.922Z,100131.41
2023-01-02T11:56:56.149Z,100114.00
2023-01-02T11:59:28.359Z,100130.56
2023-01-02T12:02:01.617Z,100135.72
2023-01-02T12:04:30.873Z,100097.47
2023-01-02T12:07:25.771Z,100121.09
2023-01-02T12:10:00.410Z,100127.09
2023-01-02T12:12:55.537Z,100123.50
2023-01-02T12:15:50.066Z,100138.22
2023-01-02T12:18:32.616Z,100141.78
2023-01-02T12:21:07.949Z,100143.38
2023-01-02T12:23:58.283Z,100152.94
2023-01-02T12:26:32.040Z,100152.97
2023-01-02T12:29:47.335Z,100147.13
2023-01-02T12:32:41.082Z,100147.50
2023-01-02T12:35:27.917Z,100159.78
2023-01-02T12:37:57.543Z,100168.03
2023-01-02T12:40:43.382Z,100170.44
2023-01-02T12:43:30.276Z,100167.25
2023-01-02T12:46:12.315Z,100166.44
2023-01-02T12:48:56.609Z,100164.38
2023-01-02T12:51:29.702Z,100173.03
2023-01-02T12:54:19.699Z,100169.44
2023-01-02T12:56:56.286Z,100162.34
2023-01-02T12:59:43.513Z,100172.94
2023-01-02T13:02:26.824Z,100170.09
2023-01-02T13:04:58.664Z,100162.28
2023-01-02T13:07:32.986Z,100163.09
2023-01-02T13:10:03.821Z,100167.03
2023-01-02T13:12:33.798Z,100167.78
2023-01-02T13:15:08.336Z,100172.53
2023-01-02T13:17:46.808Z,100161.44
2023-01-02T13:20:25.514Z,100168.56
2023-01-02T13:23:04.951Z,100170.94
2023-01-02T13:25:33.923Z,100177.25
2023-01-02T13:28:05.876Z,100170.56
2023-01-02T13:30:45.070Z,100162.72
2023-01-02T13:33:28.953Z,100163.13
2023-01-02T13:35:56.648Z,100170.63
2023-01-02T13:38:30.028Z,100173.84
2023-01-02T13:41:00.244Z,100179.78
2023-01-02T13:43:30.552Z,100168.69
2023-01-02T13:45:59.200Z,100164.34
2023-01-02T13:48:34.087Z,100184.13
2023-01-02T13:51:04.518Z,100191.63
2023-01-02T13:53:44.081Z,100188.44
2023-01-02T13:56:13.547Z,100184.50
2023-01-02T13:58:53.563Z,100191.25
2023-01-02T14:02:15.356Z,100186.03
2023-01-02T14:04:44.693Z,100193.22
2023-01-02T14:07:56.925Z,100193.22
2023-01-02T14:10:34.614Z,100204.25
2023-01-02T14:13:13.222Z,100192.00
2023-01-02T14:16:08.084Z,100191.59
2023-01-02T14:18:38.564Z,100203.84
2023-01-02T14:21:11.591Z,100200.31
2023-01-02T14:24:18.563Z,100200.28
2023-01-02T14:26:35.429Z,100198.34
2023-01-02T14:29:11.383Z,100153.19
2023-01-02T14:31:39.722Z,100205.81
2023-01-02T14:34:07.683Z,100205.41
2023-01-02T14:36:43.223Z,100199.53
2023-01-02T14:39:20.720Z,100206.63
2023-01-02T14:42:48.429Z,100216.88
2023-01-02T14:45:20.181Z,100187.19
2023-01-02T14:47:52.742Z,100213.34
2023-01-02T14:50:24.433Z,100228.34
2023-01-02T14:53:00.825Z,100221.66
2023-01-02T14:55:35.391Z,100233.47
2023-01-02T14:58:17.434Z,100222.00
2023-01-02T15:00:48.532Z,100224.75
2023-01-02T15:03:26.848Z,100233.50
2023-01-02T15:06:00.722Z,100227.22
2023-01-02T15:08:38.312Z,100224.81
2023-01-02T15:11:35.155Z,100238.34
2023-01-02T15:14:05.462Z,100241.50
2023-01-02T15:16:41.053Z,100241.88
2023-01-02T15:19:17.311Z,100236.34
2023-01-02T15:21:44.927Z,100240.66
2023-01-02T15:24:21.051Z,100240.69
2023-01-02T15:26:48.937Z,100244.25
2023-01-02T15:29:26.322Z,100248.16
2023-01-02T15:31:55.956Z,100252.50
2023-01-02T15:34:29.381Z,100253.31
2023-01-02T15:36:59.302Z,100262.34
2023-01-02T15:39:33.990Z,100259.91
2023-01-02T15:42:09.778Z,100271.91
2023-01-02T15:45:06.185Z,100279.75
2023-01-02T15:47:33.947Z,100282.94
2023-01-02T15:50:06.622Z,100288.41
2023-01-02T15:52:34.623Z,100240.94
2023-01-02T15:55:04.109Z,100301.84
2023-01-02T15:57:32.934Z,100297.16
2023-01-02T16:00:01.426Z,100309.75
2023-01-02T16:02:34.881Z,100317.66
2023-01-02T16:05:11.752Z,100321.66
2023-01-02T16:07:40.270Z,100322.03
2023-01-02T16:10:16.746Z,100326.69
2023-01-02T16:12:44.591Z,100331.06
2023-01-02T16:15:12.302Z,100375.00
2023-01-02T16:17:40.983Z,100381.16
2023-01-02T16:20:18.484Z,100367.66
2023-01-02T16:22:49.785Z,100386.22
2023-01-02T16:25:22.312Z,100390.06
2023-01-02T16:27:53.652Z,100397.41
2023-01-02T16:30:37.343Z,100396.91
2023-01-02T16:33:20.691Z,100381.66
2023-01-02T16:35:59.862Z,100399.31
2023-01-02T16:38:28.786Z,100365.53
2023-01-02T16:41:08.424Z,100363.75
2023-01-02T16:43:43.158Z,100359.50
2023-01-02T16:46:16.747Z,100393.75
2023-01-02T16:48:45.098Z,100392.50
2023-01-02T16:51:15.503Z,100394.91
2023-01-02T16:53:45.566Z,100404.06
2023-01-02T16:56:15.865Z,100404.44
2023-01-02T16:58:43.716Z,100350.06
2023-01-02T17:01:14.025Z,100393.75
2023-01-02T17:03:42.494Z,100403.28
2023-01-02T17:06:13.113Z,100429.94
2023-01-02T17:08:41.606Z,100433.88
2023-01-02T17:11:09.447Z,100446.41
2023-01-02T17:13:38.475Z,100450.25
2023-01-02T17:16:07.678Z,100447.56
2023-01-02T17:18:35.375Z,100452.97
2023-01-02T17:21:03.263Z,100453.53
2023-01-02T17:23:31.096Z,100446.06
2023-01-02T17:25:58.718Z,100480.81
2023-01-02T17:28:27.314Z,100484.81
2023-01-02T17:30:56.530Z,100499.31
2023-01-02T17:33:24.558Z,100508.06
2023-01-02T17:35:52.218Z,100540.13
2023-01-02T17:38:20.460Z,100552.19
2023-01-02T17:40:48.557Z,100556.06
2023-01-02T17:43:16.367Z,100570.94
2023-01-02T17:45:44.146Z,100572.66
2023-01-02T17:48:16.235Z,100576.19
2023-01-02T17:50:51.468Z,100572.91
2023-01-02T17:53:19.109Z,100570.63
2023-01-02T17:55:51.540Z,100579.28
2023-01-02T17:58:39.162Z,100582.38
2023-01-02T18:01:06.955Z,100595.00
2023-01-02T18:03:36.361Z,100586.59
2023-01-02T18:06:07.958Z,100587.97
2023-01-02T18:08:37.745Z,100601.91
2023-01-02T18:11:07.371Z,100566.44
2023-01-02T18:13:39.226Z,100592.03
2023-01-02T18:16:12.289Z,100603.81
2023-01-02T18:18:42.093Z,100614.41
2023-01-02T18:21:13.991Z,100625.66
2023-01-02T18:23:42.053Z,100620.94
2023-01-02T18:26:14.462Z,100601.06
2023-01-02T18:28:50.363Z,100618.56
2023-01-02T18:31:20.655Z,100636.78
2023-01-02T18:33:51.142Z,100640.13
2023-01-02T18:36:21.628Z,100646.81
2023-01-02T18:38:51.119Z,100653.34
2023-01-02T18:41:22.347Z,100644.34
2023-01-02T18:43:54.024Z,100648.91
2023-01-02T18:46:23.680Z,100650.50
2023-01-02T18:48:54.498Z,100645.84
2023-01-02T18:51:24.310Z,100652.91
2023-01-02T18:53:54.353Z,100658.97
2023-01-02T18:56:25.523Z,100663.50
2023-01-02T18:59:00.945Z,100650.97
2023-01-02T19:01:31.564Z,100654.28
2023-01-02T19:04:24.382Z,100669.00
2023-01-02T19:06:57.303Z,100665.19
2023-01-02T19:09:30.974Z,100680.53
2023-01-02T19:12:20.604Z,100687.50
2023-01-02T19:14:56.499Z,100688.50
2023-01-02T19:17:26.572Z,100687.50
2023-01-02T19:19:56.579Z,100691.25
2023-01-02T19:22:32.186Z,100685.44
2023-01-02T19:25:06.065Z,100693.69
2023-01-02T19:27:36.768Z,100684.78
2023-01-02T19:30:09.047Z,100693.94
2023-01-02T19:32:37.162Z,100654.13
2023-01-02T19:35:54.254Z,100716.13
2023-01-02T19:38:27.449Z,100723.09
2023-01-02T19:40:55.509Z,100728.00
2023-01-02T19:43:23.901Z,100728.59
2023-01-02T19:45:52.807Z,100729.16
2023-01-02T19:48:20.563Z,100734.63
2023-01-02T19:50:49.944Z,100734.38
2023-01-02T19:53:17.803Z,100729.13
2023-01-02T19:55:45.578Z,100735.00
2023-01-02T19:58:13.217Z,100733.59
2023-01-02T20:00:40.990Z,100709.03
2023-01-02T20:03:09.207Z,100748.03
2023-01-02T20:05:36.947Z,100747.94
2023-01-02T20:08:06.184Z,100747.06
2023-01-02T20:10:33.975Z,100751.47
2023-01-02T20:13:01.864Z,100755.81
2023-01-02T20:15:29.811Z,100754.38
2023-01-02T20:17:57.517Z,100755.47
2023-01-02T20:20:29.474Z,100750.59
2023-01-02T20:22:57.445Z,100771.09
2023-01-02T20:25:26.834Z,100779.69
2023-01-02T20:27:55.882Z,100777.63
2023-01-02T20:30:25.777Z,100781.75
2023-01-02T20:32:55.870Z,100779.88
2023-01-02T20:35:23.660Z,100776.38
2023-01-02T20:37:51.334Z,100785.81
2023-01-02T20:40:18.969Z,100787.47
2023-01-02T20:42:48.163Z,100792.09
2023-01-02T20:45:15.805Z,100800.72
2023-01-02T20:47:43.558Z,100803.66
2023-01-02T20:50:11.239Z,100800.47
2023-01-02T20:52:39.221Z,100797.81
2023-01-02T20:55:07.861Z,100782.81
2023-01-02T20:57:35.681Z,100766.38
2023-01-02T21:00:09.481Z,100813.88
2023-01-02T21:02:37.546Z,100817.16
2023-01-02T21:05:05.904Z,100816.47
2023-01-02T21:07:33.587Z,100821.16
2023-01-02T21:10:01.321Z,100822.66
2023-01-02T21:12:46.445Z,100828.59
2023-01-02T21:15:29.590Z,100829.22
2023-01-02T21:17:57.256Z,100832.97
2023-01-02T21:20:24.865Z,100832.09
2023-01-02T21:22:52.628Z,100843.38
2023-01-02T21:25:20.342Z,100842.78
2023-01-02T21:27:47.994Z,100841.25
2023-01-02T21:30:17.114Z,100847.50
2023-01-02T21:32:45.593Z,100855.22
2023-01-02T21:35:13.315Z,100847.94
2023-01-02T21:37:41.076Z,100853.31
2023-01-02T21:40:09.750Z,100851.91
2023-01-02T21:42:44.331Z,100850.84
2023-01-02T21:45:12.418Z,100865.38
2023-01-02T21:47:41.402Z,100858.09
2023-01-02T21:50:10.188Z,100859.72
2023-01-02T21:52:37.879Z,100861.75
2023-01-02T21:55:06.515Z,100869.41
2023-01-02T21:58:11.199Z,100862.88
2023-01-02T22:00:23.949Z,100863.47
2023-01-02T22:02:53.474Z,100867.84
2023-01-02T22:05:22.376Z,100883.22
2023-01-02T22:07:50.397Z,100859.06
2023-01-02T22:10:18.493Z,100885.25
2023-01-02T22:12:46.231Z,100884.25
2023-01-02T22:15:13.978Z,100877.94
2023-01-02T22:17:42.131Z,100827.06
2023-01-02T22:20:12.373Z,100875.94
2023-01-02T22:22:40.108Z,100903.81
2023-01-02T22:25:08.974Z,100896.75
2023-01-02T22:27:37.185Z,100893.88
2023-01-02T22:30:29.276Z,100890.97
2023-01-02T22:32:55.456Z,100889.19
2023-01-02T22:35:24.550Z,100897.97
2023-01-02T22:37:52.228Z,100905.25
2023-01-02T22:40:20.279Z,100897.63
2023-01-02T22:43:05.859Z,100900.66
2023-01-02T22:45:41.677Z,100909.03
2023-01-02T22:48:17.960Z,100915.84
2023-01-02T22:50:48.715Z,100909.22
2023-01-02T22:53:25.396Z,100912.06
2023-01-02T22:55:53.391Z,100922.03
2023-01-02T22:58:22.080Z,100931.31
2023-01-02T23:00:55.678Z,100916.94
2023-01-02T23:03:23.410Z,100942.19
2023-01-02T23:05:52.456Z,100941.53
2023-01-02T23:08:20.227Z,100943.09
2023-01-02T23:10:47.899Z,100949.06
2023-01-02T23:13:15.637Z,100937.63
2023-01-02T23:15:57.272Z,100930.66
2023-01-02T23:18:42.451Z,100936.63
2023-01-02T23:21:11.803Z,100940.06
2023-01-02T23:23:39.516Z,100943.72
2023-01-02T23:26:07.748Z,100937.78
2023-01-02T23:31:23.856Z,100938.69
2023-01-02T23:33:51.589Z,100935.84
2023-01-02T23:36:20.880Z,100937.22
2023-01-02T23:38:48.582Z,100940.41
2023-01-02T23:41:16.420Z,100940.63
2023-01-02T23:43:44.143Z,100948.28
2023-01-02T23:46:11.981Z,100938.81
2023-01-02T23:48:39.675Z,100940.41
2023-01-02T23:51:07.372Z,100941.53
2023-01-02T23:53:36.846Z,100939.72
2023-01-02T23:56:16.881Z,100947.38
2023-01-02T23:58:44.595Z,100946.25
